Vestborg — E5U2070 — position and weather

sailwx.info

Track history (hours):
 
Tides and Currents Weather Stations Pressure Air Temp Water Temp Dewpoint Dewpoint Depression Visibility Wind Speed Wind Dir Waves Ship Positions

Vestborg

Last reported at 2016-Aug-26 13:33 UTC. Time now 2016-Aug-26 13:45 UTC.
Position N 64°48' E 011°06'.

Length 66 m; draft 5.4 m.

Type: Cargo ship. MMSI: 518120000.

Date/timePositionNaut miles runAvg speedWind from/ knotsBaromVisibWave heightAir tempDewpointWater temp
2016-Aug-26 13:33N 64°48' E 011°06'8 8.0
2016-Aug-26 12:33N 64°40' E 011°03'9 1.1
2016-Aug-26 04:17N 64°34' E 011°19'6 8.1
2016-Aug-26 03:33N 64°38' E 011°09'9 8.8
2016-Aug-26 02:33N 64°47' E 011°05'9 8.5
2016-Aug-26 01:33N 64°53' E 011°18'9 8.6
2016-Aug-26 00:33N 65°00' E 011°30'9 8.5
2016-Aug-25 23:33N 65°05' E 011°46'10 9.2
2016-Aug-25 22:30N 65°14' E 011°55'70 8.5
2016-Aug-25 14:14N 66°19' E 012°57'7 9.7
2016-Aug-25 13:33N 66°26' E 012°59'27 8.9
2016-Aug-25 10:33N 66°51' E 013°20'8 8.5
2016-Aug-25 09:34N 66°58' E 013°33'9 8.9
2016-Aug-25 08:33N 67°03' E 013°52'9 9.2
2016-Aug-25 07:33N 67°11' E 014°05'9 9.3
2016-Aug-25 06:33N 67°15' E 014°27'7 3.1
2016-Aug-25 04:16N 67°18' E 014°43'0 0.0
2016-Aug-25 03:28N 67°18' E 014°43'0 0.0
2016-Aug-25 02:22N 67°18' E 014°43'0 0.0
2016-Aug-25 01:31N 67°18' E 014°43'0 0.0
2016-Aug-25 00:31N 67°18' E 014°43'0 0.0
2016-Aug-24 21:20N 67°18' E 014°43'0 0.0
2016-Aug-24 20:33N 67°18' E 014°43'0 0.0
2016-Aug-24 19:33N 67°18' E 014°43'3 3.5
2016-Aug-24 18:34N 67°16' E 014°35'7 6.9
2016-Aug-24 17:34N 67°16' E 014°17'8 8.2
2016-Aug-24 16:34N 67°23' E 014°25'9 8.6
2016-Aug-24 15:34N 67°32' E 014°30'11 8.5
2016-Aug-24 14:17N 67°42' E 014°30'103 5.7
2016-Aug-23 20:13N 69°04' E 017°20'6 9.4
2016-Aug-23 19:33N 69°07' E 017°35'10 9.4
2016-Aug-23 18:33N 69°11' E 018°00'  
Track history (hours):
 
Tides and Currents Weather Stations Pressure Air Temp Water Temp Dewpoint Dewpoint Depression Visibility Wind Speed Wind Dir Waves Ship Positions

Vestborg

Last reported at 2016-Aug-26 13:33 UTC. Time now 2016-Aug-26 13:45 UTC.
Position N 64°48' E 011°06'.

Length 66 m; draft 5.4 m.

Type: Cargo ship. MMSI: 518120000.

Date/timePositionNaut miles runAvg speedWind from/ knotsBaromVisibWave heightAir tempDewpointWater temp
2016-Aug-26 13:33N 64°48' E 011°06'8 8.0
2016-Aug-26 12:33N 64°40' E 011°03'9 1.1
2016-Aug-26 04:17N 64°34' E 011°19'6 8.1
2016-Aug-26 03:33N 64°38' E 011°09'9 8.8
2016-Aug-26 02:33N 64°47' E 011°05'9 8.5
2016-Aug-26 01:33N 64°53' E 011°18'9 8.6
2016-Aug-26 00:33N 65°00' E 011°30'9 8.5
2016-Aug-25 23:33N 65°05' E 011°46'10 9.2
2016-Aug-25 22:30N 65°14' E 011°55'70 8.5
2016-Aug-25 14:14N 66°19' E 012°57'7 9.7
2016-Aug-25 13:33N 66°26' E 012°59'27 8.9
2016-Aug-25 10:33N 66°51' E 013°20'8 8.5
2016-Aug-25 09:34N 66°58' E 013°33'9 8.9
2016-Aug-25 08:33N 67°03' E 013°52'9 9.2
2016-Aug-25 07:33N 67°11' E 014°05'9 9.3
2016-Aug-25 06:33N 67°15' E 014°27'7 3.1
2016-Aug-25 04:16N 67°18' E 014°43'0 0.0
2016-Aug-25 03:28N 67°18' E 014°43'0 0.0
2016-Aug-25 02:22N 67°18' E 014°43'0 0.0
2016-Aug-25 01:31N 67°18' E 014°43'0 0.0
2016-Aug-25 00:31N 67°18' E 014°43'0 0.0
2016-Aug-24 21:20N 67°18' E 014°43'0 0.0
2016-Aug-24 20:33N 67°18' E 014°43'0 0.0
2016-Aug-24 19:33N 67°18' E 014°43'3 3.5
2016-Aug-24 18:34N 67°16' E 014°35'7 6.9
2016-Aug-24 17:34N 67°16' E 014°17'8 8.2
2016-Aug-24 16:34N 67°23' E 014°25'9 8.6
2016-Aug-24 15:34N 67°32' E 014°30'11 8.5
2016-Aug-24 14:17N 67°42' E 014°30'103 5.7
2016-Aug-23 20:13N 69°04' E 017°20'6 9.4
2016-Aug-23 19:33N 69°07' E 017°35'10 9.4
2016-Aug-23 18:33N 69°11' E 018°00'  

Dump ship's entire track history